sensor_id;sensor_type;location;lat;lon;timestamp;temperature;humidity
46508;DHT22;32223;53.654;10.014;2023-04-25T00:02:25;7.50;99.90
46508;DHT22;32223;53.654;10.014;2023-04-25T00:04:51;7.50;99.90
46508;DHT22;32223;53.654;10.014;2023-04-25T00:07:17;7.60;99.90
46508;DHT22;32223;53.654;10.014;2023-04-25T00:09:44;7.50;99.90
46508;DHT22;32223;53.654;10.014;2023-04-25T00:12:10;7.60;99.90
46508;DHT22;32223;53.654;10.014;2023-04-25T00:14:36;7.50;99.90
46508;DHT22;32223;53.654;10.014;2023-04-25T00:17:02;7.50;99.90
46508;DHT22;32223;53.654;10.014;2023-04-25T00:19:28;7.50;99.90
46508;DHT22;32223;53.654;10.014;2023-04-25T00:21:55;7.50;99.90
46508;DHT22;32223;53.654;10.014;2023-04-25T00:24:20;7.50;99.90
46508;DHT22;32223;53.654;10.014;2023-04-25T00:26:46;7.50;99.90
46508;DHT22;32223;53.654;10.014;2023-04-25T00:29:12;7.50;99.90
46508;DHT22;32223;53.654;10.014;2023-04-25T00:31:37;7.50;99.90
46508;DHT22;32223;53.654;10.014;2023-04-25T00:34:03;7.40;99.90
46508;DHT22;32223;53.654;10.014;2023-04-25T00:36:28;7.40;99.90
46508;DHT22;32223;53.654;10.014;2023-04-25T00:38:54;7.40;99.90
46508;DHT22;32223;53.654;10.014;2023-04-25T00:41:20;7.40;99.90
46508;DHT22;32223;53.654;10.014;2023-04-25T00:43:47;7.40;99.90
46508;DHT22;32223;53.654;10.014;2023-04-25T00:46:13;7.40;99.90
46508;DHT22;32223;53.654;10.014;2023-04-25T00:48:38;7.40;99.90
46508;DHT22;32223;53.654;10.014;2023-04-25T00:51:04;7.40;99.90
46508;DHT22;32223;53.654;10.014;2023-04-25T00:53:30;7.30;99.90
46508;DHT22;32223;53.654;10.014;2023-04-25T00:55:57;7.30;99.90
46508;DHT22;32223;53.654;10.014;2023-04-25T00:58:24;7.30;99.90
46508;DHT22;32223;53.654;10.014;2023-04-25T01:00:50;7.30;99.90
46508;DHT22;32223;53.654;10.014;2023-04-25T01:03:17;7.30;99.90
46508;DHT22;32223;53.654;10.014;2023-04-25T01:05:46;7.20;99.90
46508;DHT22;32223;53.654;10.014;2023-04-25T01:08:12;7.20;99.90
46508;DHT22;32223;53.654;10.014;2023-04-25T01:10:38;7.20;99.90
46508;DHT22;32223;53.654;10.014;2023-04-25T01:13:04;7.10;99.90
46508;DHT22;32223;53.654;10.014;2023-04-25T01:15:29;7.10;99.90
46508;DHT22;32223;53.654;10.014;2023-04-25T01:17:55;7.10;99.90
46508;DHT22;32223;53.654;10.014;2023-04-25T01:20:22;7.10;99.90
46508;DHT22;32223;53.654;10.014;2023-04-25T01:22:49;7.00;99.90
46508;DHT22;32223;53.654;10.014;2023-04-25T01:25:15;7.00;99.90
46508;DHT22;32223;53.654;10.014;2023-04-25T01:27:41;7.00;99.90
46508;DHT22;32223;53.654;10.014;2023-04-25T01:30:07;7.00;99.90
46508;DHT22;32223;53.654;10.014;2023-04-25T01:32:33;7.00;99.90
46508;DHT22;32223;53.654;10.014;2023-04-25T01:35:08;7.00;99.90
46508;DHT22;32223;53.654;10.014;2023-04-25T01:37:38;7.00;99.90
46508;DHT22;32223;53.654;10.014;2023-04-25T01:40:04;7.00;99.90
46508;DHT22;32223;53.654;10.014;2023-04-25T01:42:31;7.00;99.90
46508;DHT22;32223;53.654;10.014;2023-04-25T01:44:57;7.00;99.90
46508;DHT22;32223;53.654;10.014;2023-04-25T01:47:23;7.00;99.90
46508;DHT22;32223;53.654;10.014;2023-04-25T01:49:48;6.90;99.90
46508;DHT22;32223;53.654;10.014;2023-04-25T01:52:14;6.90;99.90
46508;DHT22;32223;53.654;10.014;2023-04-25T01:54:40;6.90;99.90
46508;DHT22;32223;53.654;10.014;2023-04-25T01:57:09;6.80;99.90
46508;DHT22;32223;53.654;10.014;2023-04-25T01:59:35;6.80;99.90
46508;DHT22;32223;53.654;10.014;2023-04-25T02:02:01;6.70;99.90
46508;DHT22;32223;53.654;10.014;2023-04-25T02:04:29;6.70;99.90
46508;DHT22;32223;53.654;10.014;2023-04-25T02:06:55;6.70;99.90
46508;DHT22;32223;53.654;10.014;2023-04-25T02:09:21;6.60;99.90
46508;DHT22;32223;53.654;10.014;2023-04-25T02:11:46;6.60;99.90
46508;DHT22;32223;53.654;10.014;2023-04-25T02:14:12;6.60;99.90
46508;DHT22;32223;53.654;10.014;2023-04-25T02:16:38;6.60;99.90
46508;DHT22;32223;53.654;10.014;2023-04-25T02:19:04;6.60;99.90
46508;DHT22;32223;53.654;10.014;2023-04-25T02:21:30;6.60;99.90
46508;DHT22;32223;53.654;10.014;2023-04-25T02:23:56;6.60;99.90
46508;DHT22;32223;53.654;10.014;2023-04-25T02:26:21;6.50;99.90
46508;DHT22;32223;53.654;10.014;2023-04-25T02:28:49;6.50;99.90
46508;DHT22;32223;53.654;10.014;2023-04-25T02:31:15;6.50;99.90
46508;DHT22;32223;53.654;10.014;2023-04-25T02:33:41;6.50;99.90
46508;DHT22;32223;53.654;10.014;2023-04-25T02:36:06;6.50;99.90
46508;DHT22;32223;53.654;10.014;2023-04-25T02:38:32;6.50;99.90
46508;DHT22;32223;53.654;10.014;2023-04-25T02:40:58;6.50;99.90
46508;DHT22;32223;53.654;10.014;2023-04-25T02:43:23;6.50;99.90
46508;DHT22;32223;53.654;10.014;2023-04-25T02:45:49;6.50;99.90
46508;DHT22;32223;53.654;10.014;2023-04-25T02:48:14;6.50;99.90
46508;DHT22;32223;53.654;10.014;2023-04-25T02:50:40;6.50;99.90
46508;DHT22;32223;53.654;10.014;2023-04-25T02:53:06;6.50;99.90
46508;DHT22;32223;53.654;10.014;2023-04-25T02:55:31;6.40;99.90
46508;DHT22;32223;53.654;10.014;2023-04-25T02:57:57;6.40;99.90
46508;DHT22;32223;53.654;10.014;2023-04-25T03:00:22;6.40;99.90
46508;DHT22;32223;53.654;10.014;2023-04-25T03:02:48;6.40;99.90
46508;DHT22;32223;53.654;10.014;2023-04-25T03:05:14;6.30;99.90
46508;DHT22;32223;53.654;10.014;2023-04-25T03:07:39;6.30;99.90
46508;DHT22;32223;53.654;10.014;2023-04-25T03:10:08;6.30;99.90
46508;DHT22;32223;53.654;10.014;2023-04-25T03:12:34;6.30;99.90
46508;DHT22;32223;53.654;10.014;2023-04-25T03:15:00;6.30;99.90
46508;DHT22;32223;53.654;10.014;2023-04-25T03:17:25;6.30;99.90
46508;DHT22;32223;53.654;10.014;2023-04-25T03:19:51;6.20;99.90
46508;DHT22;32223;53.654;10.014;2023-04-25T03:22:16;6.10;99.90
46508;DHT22;32223;53.654;10.014;2023-04-25T03:24:42;6.00;99.90
46508;DHT22;32223;53.654;10.014;2023-04-25T03:27:08;6.00;99.90
46508;DHT22;32223;53.654;10.014;2023-04-25T03:29:33;5.90;99.90
46508;DHT22;32223;53.654;10.014;2023-04-25T03:31:59;5.80;99.90
46508;DHT22;32223;53.654;10.014;2023-04-25T03:34:24;5.80;99.90
46508;DHT22;32223;53.654;10.014;2023-04-25T03:36:51;5.70;99.90
46508;DHT22;32223;53.654;10.014;2023-04-25T03:39:17;5.60;99.90
46508;DHT22;32223;53.654;10.014;2023-04-25T03:41:42;5.60;99.90
46508;DHT22;32223;53.654;10.014;2023-04-25T03:44:08;5.40;99.90
46508;DHT22;32223;53.654;10.014;2023-04-25T03:46:34;5.30;99.90
46508;DHT22;32223;53.654;10.014;2023-04-25T03:48:59;5.30;99.90
46508;DHT22;32223;53.654;10.014;2023-04-25T03:51:25;5.20;99.90
46508;DHT22;32223;53.654;10.014;2023-04-25T03:53:51;5.20;99.90
46508;DHT22;32223;53.654;10.014;2023-04-25T03:56:17;5.20;99.90
46508;DHT22;32223;53.654;10.014;2023-04-25T03:58:43;5.10;99.90
46508;DHT22;32223;53.654;10.014;2023-04-25T04:01:08;5.10;99.90
46508;DHT22;32223;53.654;10.014;2023-04-25T04:03:35;5.10;99.90
46508;DHT22;32223;53.654;10.014;2023-04-25T04:06:04;5.10;99.90
46508;DHT22;32223;53.654;10.014;2023-04-25T04:08:31;5.10;99.90
46508;DHT22;32223;53.654;10.014;2023-04-25T04:10:59;5.00;99.90
46508;DHT22;32223;53.654;10.014;2023-04-25T04:13:26;5.00;99.90
46508;DHT22;32223;53.654;10.014;2023-04-25T04:15:52;5.00;99.90
46508;DHT22;32223;53.654;10.014;2023-04-25T04:18:17;4.90;99.90
46508;DHT22;32223;53.654;10.014;2023-04-25T04:20:43;4.90;99.90
46508;DHT22;32223;53.654;10.014;2023-04-25T04:23:09;4.90;99.90
46508;DHT22;32223;53.654;10.014;2023-04-25T04:25:34;4.80;99.90
46508;DHT22;32223;53.654;10.014;2023-04-25T04:28:00;4.80;99.90
46508;DHT22;32223;53.654;10.014;2023-04-25T04:30:26;4.90;99.90
46508;DHT22;32223;53.654;10.014;2023-04-25T04:32:56;4.90;99.90
46508;DHT22;32223;53.654;10.014;2023-04-25T04:35:23;4.90;99.90
46508;DHT22;32223;53.654;10.014;2023-04-25T04:37:49;5.00;99.90
46508;DHT22;32223;53.654;10.014;2023-04-25T04:40:15;5.10;99.90
46508;DHT22;32223;53.654;10.014;2023-04-25T04:42:42;5.10;99.90
46508;DHT22;32223;53.654;10.014;2023-04-25T04:45:09;5.20;99.90
46508;DHT22;32223;53.654;10.014;2023-04-25T04:47:35;5.20;99.90
46508;DHT22;32223;53.654;10.014;2023-04-25T04:50:02;5.20;99.90
46508;DHT22;32223;53.654;10.014;2023-04-25T04:52:29;5.30;99.90
46508;DHT22;32223;53.654;10.014;2023-04-25T04:54:55;5.40;99.90
46508;DHT22;32223;53.654;10.014;2023-04-25T04:57:20;5.40;99.90
46508;DHT22;32223;53.654;10.014;2023-04-25T04:59:46;5.40;99.90
46508;DHT22;32223;53.654;10.014;2023-04-25T05:02:12;5.50;99.90
46508;DHT22;32223;53.654;10.014;2023-04-25T05:04:37;5.50;99.90
46508;DHT22;32223;53.654;10.014;2023-04-25T05:07:03;5.60;99.90
46508;DHT22;32223;53.654;10.014;2023-04-25T05:09:29;5.60;99.90
46508;DHT22;32223;53.654;10.014;2023-04-25T05:11:54;5.60;99.90
46508;DHT22;32223;53.654;10.014;2023-04-25T05:14:20;5.60;99.90
46508;DHT22;32223;53.654;10.014;2023-04-25T05:16:47;5.60;99.90
46508;DHT22;32223;53.654;10.014;2023-04-25T05:19:13;5.50;99.90
46508;DHT22;32223;53.654;10.014;2023-04-25T05:21:38;5.40;99.90
46508;DHT22;32223;53.654;10.014;2023-04-25T05:24:04;5.40;99.90
46508;DHT22;32223;53.654;10.014;2023-04-25T05:26:30;5.40;99.90
46508;DHT22;32223;53.654;10.014;2023-04-25T05:28:59;5.40;99.90
46508;DHT22;32223;53.654;10.014;2023-04-25T05:31:25;5.40;99.90
46508;DHT22;32223;53.654;10.014;2023-04-25T05:33:51;5.40;99.90
46508;DHT22;32223;53.654;10.014;2023-04-25T05:36:18;5.40;99.90
46508;DHT22;32223;53.654;10.014;2023-04-25T05:38:44;5.50;99.90
46508;DHT22;32223;53.654;10.014;2023-04-25T05:41:09;5.50;99.90
46508;DHT22;32223;53.654;10.014;2023-04-25T05:43:35;5.60;99.90
46508;DHT22;32223;53.654;10.014;2023-04-25T05:46:01;5.60;99.90
46508;DHT22;32223;53.654;10.014;2023-04-25T05:48:26;5.60;99.90
46508;DHT22;32223;53.654;10.014;2023-04-25T05:50:52;5.60;99.90
46508;DHT22;32223;53.654;10.014;2023-04-25T05:53:19;5.50;99.90
46508;DHT22;32223;53.654;10.014;2023-04-25T05:55:44;5.60;99.90
46508;DHT22;32223;53.654;10.014;2023-04-25T05:58:10;5.60;99.90
46508;DHT22;32223;53.654;10.014;2023-04-25T06:00:36;5.70;99.90
46508;DHT22;32223;53.654;10.014;2023-04-25T06:03:01;5.70;99.90
46508;DHT22;32223;53.654;10.014;2023-04-25T06:05:27;5.80;99.90
46508;DHT22;32223;53.654;10.014;2023-04-25T06:07:53;5.90;99.90
46508;DHT22;32223;53.654;10.014;2023-04-25T06:10:18;5.90;99.90
46508;DHT22;32223;53.654;10.014;2023-04-25T06:12:44;6.00;99.90
46508;DHT22;32223;53.654;10.014;2023-04-25T06:15:10;6.00;99.90
46508;DHT22;32223;53.654;10.014;2023-04-25T06:17:36;6.10;99.90
46508;DHT22;32223;53.654;10.014;2023-04-25T06:20:02;6.20;99.90
46508;DHT22;32223;53.654;10.014;2023-04-25T06:22:29;6.30;99.90
46508;DHT22;32223;53.654;10.014;2023-04-25T06:24:54;6.40;99.90
46508;DHT22;32223;53.654;10.014;2023-04-25T06:27:22;6.50;99.90
46508;DHT22;32223;53.654;10.014;2023-04-25T06:29:48;6.60;99.90
46508;DHT22;32223;53.654;10.014;2023-04-25T06:32:13;6.60;99.90
46508;DHT22;32223;53.654;10.014;2023-04-25T06:34:39;6.60;99.90
46508;DHT22;32223;53.654;10.014;2023-04-25T06:37:05;6.70;99.90
46508;DHT22;32223;53.654;10.014;2023-04-25T06:39:30;6.70;99.90
46508;DHT22;32223;53.654;10.014;2023-04-25T06:41:56;6.60;99.90
46508;DHT22;32223;53.654;10.014;2023-04-25T06:44:22;6.50;99.90
46508;DHT22;32223;53.654;10.014;2023-04-25T06:46:49;6.50;99.90
46508;DHT22;32223;53.654;10.014;2023-04-25T06:49:15;6.60;99.90
46508;DHT22;32223;53.654;10.014;2023-04-25T06:51:41;6.50;99.90
46508;DHT22;32223;53.654;10.014;2023-04-25T06:54:06;6.50;99.90
46508;DHT22;32223;53.654;10.014;2023-04-25T06:56:32;6.60;99.90
46508;DHT22;32223;53.654;10.014;2023-04-25T06:58:58;6.70;99.90
46508;DHT22;32223;53.654;10.014;2023-04-25T07:01:23;6.60;99.90
46508;DHT22;32223;53.654;10.014;2023-04-25T07:03:50;6.70;99.90
46508;DHT22;32223;53.654;10.014;2023-04-25T07:06:15;6.70;99.90
46508;DHT22;32223;53.654;10.014;2023-04-25T07:08:41;6.70;99.90
46508;DHT22;32223;53.654;10.014;2023-04-25T07:11:06;6.70;99.90
46508;DHT22;32223;53.654;10.014;2023-04-25T07:13:32;6.70;99.90
46508;DHT22;32223;53.654;10.014;2023-04-25T07:15:57;6.60;99.90
46508;DHT22;32223;53.654;10.014;2023-04-25T07:18:24;6.40;99.90
46508;DHT22;32223;53.654;10.014;2023-04-25T07:20:50;6.30;99.90
46508;DHT22;32223;53.654;10.014;2023-04-25T07:23:15;6.20;99.90
46508;DHT22;32223;53.654;10.014;2023-04-25T07:25:41;6.10;99.90
46508;DHT22;32223;53.654;10.014;2023-04-25T07:28:06;6.10;99.90
46508;DHT22;32223;53.654;10.014;2023-04-25T07:30:32;6.20;99.90
46508;DHT22;32223;53.654;10.014;2023-04-25T07:33:00;6.20;99.90
46508;DHT22;32223;53.654;10.014;2023-04-25T07:35:25;6.40;99.90
46508;DHT22;32223;53.654;10.014;2023-04-25T07:37:51;6.50;99.90
46508;DHT22;32223;53.654;10.014;2023-04-25T07:40:16;6.60;99.90
46508;DHT22;32223;53.654;10.014;2023-04-25T07:42:42;6.70;99.90
46508;DHT22;32223;53.654;10.014;2023-04-25T07:45:08;6.90;99.90
46508;DHT22;32223;53.654;10.014;2023-04-25T07:47:34;6.90;99.90
46508;DHT22;32223;53.654;10.014;2023-04-25T07:50:00;7.00;99.90
46508;DHT22;32223;53.654;10.014;2023-04-25T07:52:26;7.10;99.90
46508;DHT22;32223;53.654;10.014;2023-04-25T07:54:52;7.20;99.90
46508;DHT22;32223;53.654;10.014;2023-04-25T07:57:18;7.40;99.90
46508;DHT22;32223;53.654;10.014;2023-04-25T07:59:44;7.70;99.90
46508;DHT22;32223;53.654;10.014;2023-04-25T08:02:10;7.90;99.90
46508;DHT22;32223;53.654;10.014;2023-04-25T08:04:36;8.00;99.90
46508;DHT22;32223;53.654;10.014;2023-04-25T08:07:01;8.10;99.90
46508;DHT22;32223;53.654;10.014;2023-04-25T08:09:27;8.10;99.90
46508;DHT22;32223;53.654;10.014;2023-04-25T08:11:53;7.90;99.90
46508;DHT22;32223;53.654;10.014;2023-04-25T08:14:18;7.80;99.90
46508;DHT22;32223;53.654;10.014;2023-04-25T08:16:44;7.60;99.90
46508;DHT22;32223;53.654;10.014;2023-04-25T08:19:10;6.70;99.90
46508;DHT22;32223;53.654;10.014;2023-04-25T08:21:38;6.40;99.90
46508;DHT22;32223;53.654;10.014;2023-04-25T08:24:04;6.20;99.90
46508;DHT22;32223;53.654;10.014;2023-04-25T08:26:30;6.10;99.90
46508;DHT22;32223;53.654;10.014;2023-04-25T08:28:56;6.10;99.90
46508;DHT22;32223;53.654;10.014;2023-04-25T08:31:21;6.20;99.90
46508;DHT22;32223;53.654;10.014;2023-04-25T08:33:47;6.20;99.90
46508;DHT22;32223;53.654;10.014;2023-04-25T08:36:13;6.30;99.90
46508;DHT22;32223;53.654;10.014;2023-04-25T08:38:38;6.50;99.90
46508;DHT22;32223;53.654;10.014;2023-04-25T08:41:05;6.70;99.90
46508;DHT22;32223;53.654;10.014;2023-04-25T08:43:32;7.10;99.90
46508;DHT22;32223;53.654;10.014;2023-04-25T08:46:00;7.30;99.90
46508;DHT22;32223;53.654;10.014;2023-04-25T08:48:27;7.50;99.90
46508;DHT22;32223;53.654;10.014;2023-04-25T08:50:55;7.60;99.90
46508;DHT22;32223;53.654;10.014;2023-04-25T08:53:32;7.70;99.90
46508;DHT22;32223;53.654;10.014;2023-04-25T08:56:00;8.00;99.90
46508;DHT22;32223;53.654;10.014;2023-04-25T08:58:27;8.20;99.90
46508;DHT22;32223;53.654;10.014;2023-04-25T09:00:53;8.30;99.90
46508;DHT22;32223;53.654;10.014;2023-04-25T09:03:19;8.40;99.90
46508;DHT22;32223;53.654;10.014;2023-04-25T09:05:44;8.30;99.90
46508;DHT22;32223;53.654;10.014;2023-04-25T09:08:10;8.20;99.90
46508;DHT22;32223;53.654;10.014;2023-04-25T09:10:37;8.20;99.90
46508;DHT22;32223;53.654;10.014;2023-04-25T09:13:10;8.10;99.90
46508;DHT22;32223;53.654;10.014;2023-04-25T09:15:49;8.00;99.90
46508;DHT22;32223;53.654;10.014;2023-04-25T09:18:29;8.00;99.90
46508;DHT22;32223;53.654;10.014;2023-04-25T09:20:56;8.00;99.90
46508;DHT22;32223;53.654;10.014;2023-04-25T09:23:23;8.10;99.90
46508;DHT22;32223;53.654;10.014;2023-04-25T09:25:52;8.30;99.90
46508;DHT22;32223;53.654;10.014;2023-04-25T09:28:26;8.40;99.90
46508;DHT22;32223;53.654;10.014;2023-04-25T09:30:55;8.60;99.90
46508;DHT22;32223;53.654;10.014;2023-04-25T09:33:28;8.80;99.90
46508;DHT22;32223;53.654;10.014;2023-04-25T09:36:05;9.10;99.90
46508;DHT22;32223;53.654;10.014;2023-04-25T09:38:31;9.10;99.90
46508;DHT22;32223;53.654;10.014;2023-04-25T09:40:57;8.90;99.90
46508;DHT22;32223;53.654;10.014;2023-04-25T09:43:24;8.70;99.90
46508;DHT22;32223;53.654;10.014;2023-04-25T09:45:51;8.50;99.90
46508;DHT22;32223;53.654;10.014;2023-04-25T09:48:19;8.00;99.90
46508;DHT22;32223;53.654;10.014;2023-04-25T09:50:52;7.80;99.90
46508;DHT22;32223;53.654;10.014;2023-04-25T09:53:29;7.80;99.90
46508;DHT22;32223;53.654;10.014;2023-04-25T09:55:55;8.00;99.90
46508;DHT22;32223;53.654;10.014;2023-04-25T09:58:25;8.00;99.90
46508;DHT22;32223;53.654;10.014;2023-04-25T10:01:00;8.10;99.90
46508;DHT22;32223;53.654;10.014;2023-04-25T10:03:26;8.20;99.90
46508;DHT22;32223;53.654;10.014;2023-04-25T10:05:53;8.40;99.90
46508;DHT22;32223;53.654;10.014;2023-04-25T10:08:20;8.80;99.90
46508;DHT22;32223;53.654;10.014;2023-04-25T10:10:46;9.20;99.90
46508;DHT22;32223;53.654;10.014;2023-04-25T10:13:14;9.40;99.90
46508;DHT22;32223;53.654;10.014;2023-04-25T10:15:40;9.60;99.90
46508;DHT22;32223;53.654;10.014;2023-04-25T10:18:06;9.60;99.90
46508;DHT22;32223;53.654;10.014;2023-04-25T10:20:32;9.50;99.90
46508;DHT22;32223;53.654;10.014;2023-04-25T10:23:06;9.50;99.90
46508;DHT22;32223;53.654;10.014;2023-04-25T10:25:35;9.50;99.90
46508;DHT22;32223;53.654;10.014;2023-04-25T10:28:03;9.40;99.90
46508;DHT22;32223;53.654;10.014;2023-04-25T10:30:29;9.40;99.90
46508;DHT22;32223;53.654;10.014;2023-04-25T10:32:55;9.50;99.90
46508;DHT22;32223;53.654;10.014;2023-04-25T10:38:10;9.60;99.90
46508;DHT22;32223;53.654;10.014;2023-04-25T10:40:36;9.70;99.90
46508;DHT22;32223;53.654;10.014;2023-04-25T10:43:34;9.70;99.90
46508;DHT22;32223;53.654;10.014;2023-04-25T10:46:01;9.60;99.90
46508;DHT22;32223;53.654;10.014;2023-04-25T10:48:28;9.40;99.90
46508;DHT22;32223;53.654;10.014;2023-04-25T10:53:41;9.10;99.90
46508;DHT22;32223;53.654;10.014;2023-04-25T11:01:51;8.70;99.90
46508;DHT22;32223;53.654;10.014;2023-04-25T11:04:30;8.90;99.90
46508;DHT22;32223;53.654;10.014;2023-04-25T11:09:36;8.60;99.90
46508;DHT22;32223;53.654;10.014;2023-04-25T11:12:03;8.40;99.90
46508;DHT22;32223;53.654;10.014;2023-04-25T11:14:30;8.20;99.90
46508;DHT22;32223;53.654;10.014;2023-04-25T11:16:57;7.90;99.90
46508;DHT22;32223;53.654;10.014;2023-04-25T11:19:24;7.90;99.90
46508;DHT22;32223;53.654;10.014;2023-04-25T11:21:50;8.00;99.90
46508;DHT22;32223;53.654;10.014;2023-04-25T11:24:16;8.10;99.90
46508;DHT22;32223;53.654;10.014;2023-04-25T11:26:43;8.10;99.90
46508;DHT22;32223;53.654;10.014;2023-04-25T11:29:09;8.20;99.90
46508;DHT22;32223;53.654;10.014;2023-04-25T11:31:34;8.40;99.90
46508;DHT22;32223;53.654;10.014;2023-04-25T11:34:00;8.70;99.90
46508;DHT22;32223;53.654;10.014;2023-04-25T11:36:26;9.10;99.90
46508;DHT22;32223;53.654;10.014;2023-04-25T11:38:53;9.30;99.90
46508;DHT22;32223;53.654;10.014;2023-04-25T11:41:19;9.70;99.90
46508;DHT22;32223;53.654;10.014;2023-04-25T11:43:45;10.00;99.90
46508;DHT22;32223;53.654;10.014;2023-04-25T11:46:11;10.20;99.90
46508;DHT22;32223;53.654;10.014;2023-04-25T11:48:38;10.50;99.90
46508;DHT22;32223;53.654;10.014;2023-04-25T11:51:04;10.50;99.90
46508;DHT22;32223;53.654;10.014;2023-04-25T11:53:30;10.40;99.90
46508;DHT22;32223;53.654;10.014;2023-04-25T11:55:55;10.40;99.90
46508;DHT22;32223;53.654;10.014;2023-04-25T11:58:21;10.60;99.90
46508;DHT22;32223;53.654;10.014;2023-04-25T12:00:47;10.80;99.90
46508;DHT22;32223;53.654;10.014;2023-04-25T12:03:12;10.70;99.90
46508;DHT22;32223;53.654;10.014;2023-04-25T12:05:38;10.60;99.90
46508;DHT22;32223;53.654;10.014;2023-04-25T12:08:12;10.40;99.90
46508;DHT22;32223;53.654;10.014;2023-04-25T12:10:39;10.30;99.90
46508;DHT22;32223;53.654;10.014;2023-04-25T12:13:21;10.40;99.90
46508;DHT22;32223;53.654;10.014;2023-04-25T12:15:46;10.60;99.90
46508;DHT22;32223;53.654;10.014;2023-04-25T12:18:12;11.10;99.90
46508;DHT22;32223;53.654;10.014;2023-04-25T12:20:38;11.10;99.90
46508;DHT22;32223;53.654;10.014;2023-04-25T12:23:06;11.30;99.90
46508;DHT22;32223;53.654;10.014;2023-04-25T12:25:41;11.40;99.90
46508;DHT22;32223;53.654;10.014;2023-04-25T12:28:18;11.50;99.90
46508;DHT22;32223;53.654;10.014;2023-04-25T12:33:21;11.60;99.90
46508;DHT22;32223;53.654;10.014;2023-04-25T12:35:47;12.10;99.90
46508;DHT22;32223;53.654;10.014;2023-04-25T12:38:24;12.10;99.90
46508;DHT22;32223;53.654;10.014;2023-04-25T12:40:50;11.90;99.90
46508;DHT22;32223;53.654;10.014;2023-04-25T12:43:16;12.10;99.90
46508;DHT22;32223;53.654;10.014;2023-04-25T12:45:43;11.90;99.90
46508;DHT22;32223;53.654;10.014;2023-04-25T12:48:09;11.30;99.90
46508;DHT22;32223;53.654;10.014;2023-04-25T12:50:35;10.50;99.90
46508;DHT22;32223;53.654;10.014;2023-04-25T12:53:00;10.20;99.90
46508;DHT22;32223;53.654;10.014;2023-04-25T12:55:26;10.00;99.90
46508;DHT22;32223;53.654;10.014;2023-04-25T12:57:52;9.70;99.90
46508;DHT22;32223;53.654;10.014;2023-04-25T13:00:17;9.50;99.90
46508;DHT22;32223;53.654;10.014;2023-04-25T13:02:45;9.70;99.90
46508;DHT22;32223;53.654;10.014;2023-04-25T13:05:12;10.30;99.90
46508;DHT22;32223;53.654;10.014;2023-04-25T13:07:38;10.50;99.90
46508;DHT22;32223;53.654;10.014;2023-04-25T13:10:04;11.00;99.90
46508;DHT22;32223;53.654;10.014;2023-04-25T13:12:31;11.60;99.90
46508;DHT22;32223;53.654;10.014;2023-04-25T13:14:56;12.10;99.90
46508;DHT22;32223;53.654;10.014;2023-04-25T13:17:22;12.50;99.90
46508;DHT22;32223;53.654;10.014;2023-04-25T13:19:48;11.70;99.90
46508;DHT22;32223;53.654;10.014;2023-04-25T13:22:13;10.90;99.90
46508;DHT22;32223;53.654;10.014;2023-04-25T13:24:40;10.40;99.90
46508;DHT22;32223;53.654;10.014;2023-04-25T13:27:06;9.90;99.90
46508;DHT22;32223;53.654;10.014;2023-04-25T13:29:31;10.30;99.90
46508;DHT22;32223;53.654;10.014;2023-04-25T13:32:00;11.30;99.90
46508;DHT22;32223;53.654;10.014;2023-04-25T13:34:26;11.90;99.90
46508;DHT22;32223;53.654;10.014;2023-04-25T13:36:52;11.60;99.90
46508;DHT22;32223;53.654;10.014;2023-04-25T13:39:17;12.50;99.90
46508;DHT22;32223;53.654;10.014;2023-04-25T13:41:43;13.10;99.90
46508;DHT22;32223;53.654;10.014;2023-04-25T13:44:09;12.30;99.90
46508;DHT22;32223;53.654;10.014;2023-04-25T13:46:34;11.10;99.90
46508;DHT22;32223;53.654;10.014;2023-04-25T13:49:00;9.90;99.90
46508;DHT22;32223;53.654;10.014;2023-04-25T13:51:26;9.10;99.90
46508;DHT22;32223;53.654;10.014;2023-04-25T13:53:52;8.50;99.90
46508;DHT22;32223;53.654;10.014;2023-04-25T13:56:18;8.50;99.90
46508;DHT22;32223;53.654;10.014;2023-04-25T13:58:45;8.60;99.90
46508;DHT22;32223;53.654;10.014;2023-04-25T14:01:10;8.80;99.90
46508;DHT22;32223;53.654;10.014;2023-04-25T14:03:36;8.80;99.90
46508;DHT22;32223;53.654;10.014;2023-04-25T14:06:01;8.80;99.90
46508;DHT22;32223;53.654;10.014;2023-04-25T14:08:27;9.20;99.90
46508;DHT22;32223;53.654;10.014;2023-04-25T14:10:54;10.30;99.90
46508;DHT22;32223;53.654;10.014;2023-04-25T14:13:19;11.40;99.90
46508;DHT22;32223;53.654;10.014;2023-04-25T14:15:45;12.60;99.90
46508;DHT22;32223;53.654;10.014;2023-04-25T14:18:11;13.80;99.90
46508;DHT22;32223;53.654;10.014;2023-04-25T14:20:37;14.40;99.90
46508;DHT22;32223;53.654;10.014;2023-04-25T14:23:03;14.70;99.90
46508;DHT22;32223;53.654;10.014;2023-04-25T14:25:29;14.40;99.90
46508;DHT22;32223;53.654;10.014;2023-04-25T14:27:55;13.20;99.90
46508;DHT22;32223;53.654;10.014;2023-04-25T14:30:21;12.60;99.90
46508;DHT22;32223;53.654;10.014;2023-04-25T14:32:49;12.80;99.90
46508;DHT22;32223;53.654;10.014;2023-04-25T14:35:15;13.20;99.90
46508;DHT22;32223;53.654;10.014;2023-04-25T14:37:41;14.00;99.90
46508;DHT22;32223;53.654;10.014;2023-04-25T14:40:08;15.20;99.90
46508;DHT22;32223;53.654;10.014;2023-04-25T14:42:38;16.20;95.90
46508;DHT22;32223;53.654;10.014;2023-04-25T14:45:05;15.90;93.90
46508;DHT22;32223;53.654;10.014;2023-04-25T14:47:32;15.30;93.50
46508;DHT22;32223;53.654;10.014;2023-04-25T14:49:58;15.10;93.30
46508;DHT22;32223;53.654;10.014;2023-04-25T14:52:24;14.50;94.00
46508;DHT22;32223;53.654;10.014;2023-04-25T14:54:50;14.50;94.90
46508;DHT22;32223;53.654;10.014;2023-04-25T14:57:16;14.60;95.20
46508;DHT22;32223;53.654;10.014;2023-04-25T14:59:42;14.30;95.80
46508;DHT22;32223;53.654;10.014;2023-04-25T15:02:08;13.60;96.60
46508;DHT22;32223;53.654;10.014;2023-04-25T15:04:33;12.00;99.40
46508;DHT22;32223;53.654;10.014;2023-04-25T15:06:59;10.60;99.90
46508;DHT22;32223;53.654;10.014;2023-04-25T15:09:24;9.50;99.90
46508;DHT22;32223;53.654;10.014;2023-04-25T15:11:51;8.90;99.90
46508;DHT22;32223;53.654;10.014;2023-04-25T15:14:17;8.50;99.90
46508;DHT22;32223;53.654;10.014;2023-04-25T15:16:43;8.40;99.90
46508;DHT22;32223;53.654;10.014;2023-04-25T15:19:08;8.50;99.90
46508;DHT22;32223;53.654;10.014;2023-04-25T15:21:34;8.70;99.90
46508;DHT22;32223;53.654;10.014;2023-04-25T15:24:00;9.00;99.90
46508;DHT22;32223;53.654;10.014;2023-04-25T15:26:27;9.70;99.90
46508;DHT22;32223;53.654;10.014;2023-04-25T15:28:52;10.00;99.90
46508;DHT22;32223;53.654;10.014;2023-04-25T15:31:18;11.20;99.90
46508;DHT22;32223;53.654;10.014;2023-04-25T15:33:44;12.30;99.90
46508;DHT22;32223;53.654;10.014;2023-04-25T15:36:10;13.00;99.90
46508;DHT22;32223;53.654;10.014;2023-04-25T15:38:36;13.70;99.90
46508;DHT22;32223;53.654;10.014;2023-04-25T15:41:01;13.80;99.90